Time;durP1;ratioP1;P1;durP2;ratioP2;P2;SDS_P1;SDS_P2;PMS_P1;PMS_P2;Temp;Humidity;BMP_temperature;BMP_pressure;BME280_temperature;BME280_humidity;BME280_pressure;Samples;Min_cycle;Max_cycle;Signal;HPM_P1;HPM_P2
2022/08/05 00:01:37;;;;;;;5.75;4.38;;;;;;;;;;5038110;28;20032;-83
2022/08/05 00:04:03;;;;;;;7.68;5.22;;;;;;;;;;5054181;28;20016;-84
2022/08/05 00:06:29;;;;;;;5.97;4.45;;;;;;;;;;5056770;28;20032;-83
2022/08/05 00:08:55;;;;;;;7.13;4.85;;;;;;;;;;5056319;28;20037;-84
2022/08/05 00:11:21;;;;;;;7.20;4.70;;;;;;;;;;5039379;28;20415;-83
2022/08/05 00:13:47;;;;;;;6.80;4.85;;;;;;;;;;5037434;28;20021;-83
2022/08/05 00:16:14;;;;;;;7.25;4.80;;;;;;;;;;5055234;28;20102;-83
2022/08/05 00:18:41;;;;;;;7.43;5.20;;;;;;;;;;5056579;28;20032;-84
2022/08/05 00:21:07;;;;;;;6.82;4.75;;;;;;;;;;5054384;28;20116;-83
2022/08/05 00:23:33;;;;;;;7.45;4.93;;;;;;;;;;5056181;28;20525;-84
2022/08/05 00:25:59;;;;;;;6.15;4.95;;;;;;;;;;5055626;28;20237;-84
2022/08/05 00:28:25;;;;;;;7.75;4.97;;;;;;;;;;5049643;28;20039;-83
2022/08/05 00:30:51;;;;;;;7.05;4.68;;;;;;;;;;5059655;28;20115;-84
2022/08/05 00:33:17;;;;;;;5.95;4.45;;;;;;;;;;5060048;28;20049;-84
2022/08/05 00:35:43;;;;;;;5.93;4.20;;;;;;;;;;5061241;28;20025;-84
2022/08/05 00:38:09;;;;;;;6.28;4.30;;;;;;;;;;5062121;28;20105;-84
2022/08/05 00:40:45;;;;;;;8.27;4.80;;;;;;;;;;5040066;28;20060;-84
2022/08/05 00:43:11;;;;;;;7.10;4.60;;;;;;;;;;5059937;28;20126;-83
2022/08/05 00:45:37;;;;;;;6.80;4.35;;;;;;;;;;5055940;28;20037;-83
2022/08/05 00:48:03;;;;;;;6.50;4.35;;;;;;;;;;5059504;28;20025;-84
2022/08/05 00:50:29;;;;;;;6.15;4.35;;;;;;;;;;5042154;28;20025;-84
2022/08/05 00:52:55;;;;;;;6.95;4.70;;;;;;;;;;5059647;28;20032;-83
2022/08/05 00:55:21;;;;;;;6.00;4.20;;;;;;;;;;5044396;28;20029;-83
2022/08/05 00:57:47;;;;;;;6.28;4.35;;;;;;;;;;5060693;28;20021;-84
2022/08/05 01:00:13;;;;;;;8.07;4.93;;;;;;;;;;5055196;28;20039;-83
2022/08/05 01:02:39;;;;;;;6.85;4.15;;;;;;;;;;5054717;28;20035;-83
2022/08/05 01:05:05;;;;;;;7.18;4.70;;;;;;;;;;5054722;28;20403;-83
2022/08/05 01:07:31;;;;;;;6.57;4.53;;;;;;;;;;5057650;28;20017;-83
2022/08/05 01:09:58;;;;;;;7.25;4.57;;;;;;;;;;5057879;28;20025;-83
2022/08/05 01:12:24;;;;;;;6.95;4.57;;;;;;;;;;5055873;28;20060;-84
2022/08/05 01:14:57;;;;;;;10.43;4.93;;;;;;;;;;5057343;28;20098;-83
2022/08/05 01:17:27;;;;;;;7.00;4.90;;;;;;;;;;5040222;28;20167;-83
2022/08/05 01:20:03;;;;;;;7.45;4.90;;;;;;;;;;5039730;28;20028;-84
2022/08/05 01:22:32;;;;;;;7.20;4.90;;;;;;;;;;5038194;28;20044;-83
2022/08/05 01:25:20;;;;;;;6.50;4.78;;;;;;;;;;5058630;28;20548;-84
2022/08/05 01:28:04;;;;;;;7.45;4.63;;;;;;;;;;5063091;28;20037;-84
2022/08/05 01:30:34;;;;;;;6.60;4.57;;;;;;;;;;5059382;28;20029;-84
2022/08/05 01:33:00;;;;;;;7.13;5.20;;;;;;;;;;5063538;28;20028;-84
2022/08/05 01:35:27;;;;;;;6.13;4.70;;;;;;;;;;5061614;28;20056;-84
2022/08/05 01:37:53;;;;;;;8.25;5.03;;;;;;;;;;5062607;28;20041;-84
2022/08/05 01:40:21;;;;;;;6.43;4.50;;;;;;;;;;5040484;28;20116;-84
2022/08/05 01:42:48;;;;;;;6.70;4.65;;;;;;;;;;5060486;28;20025;-83
2022/08/05 01:45:16;;;;;;;6.68;4.88;;;;;;;;;;5056923;28;20033;-83
2022/08/05 01:47:43;;;;;;;7.65;4.90;;;;;;;;;;5057139;28;20107;-84
2022/08/05 01:50:12;;;;;;;7.45;5.00;;;;;;;;;;5055810;28;20073;-84
2022/08/05 01:52:40;;;;;;;8.85;5.70;;;;;;;;;;5056360;28;20055;-83
2022/08/05 01:55:09;;;;;;;6.32;4.40;;;;;;;;;;5054473;28;20064;-84
2022/08/05 01:57:37;;;;;;;6.80;5.05;;;;;;;;;;5054077;28;20041;-84
2022/08/05 02:00:04;;;;;;;7.03;4.97;;;;;;;;;;5057313;28;20029;-84
2022/08/05 02:02:31;;;;;;;7.10;4.68;;;;;;;;;;5062229;28;20183;-84
2022/08/05 02:05:00;;;;;;;7.57;5.07;;;;;;;;;;5059728;28;20100;-83
2022/08/05 02:07:26;;;;;;;7.70;5.03;;;;;;;;;;5037861;28;20055;-84
2022/08/05 02:09:52;;;;;;;6.45;4.82;;;;;;;;;;5056945;28;20036;-83
2022/08/05 02:12:49;;;;;;;8.18;4.70;;;;;;;;;;5061748;28;20032;-84
2022/08/05 02:15:27;;;;;;;7.53;5.20;;;;;;;;;;5058081;28;20084;-84
2022/08/05 02:17:58;;;;;;;10.13;4.88;;;;;;;;;;5048831;28;20059;-84
2022/08/05 02:20:26;;;;;;;6.95;4.82;;;;;;;;;;5046515;28;20032;-84
2022/08/05 02:23:03;;;;;;;5.95;4.25;;;;;;;;;;5063728;28;20040;-84
2022/08/05 02:25:34;;;;;;;7.00;4.97;;;;;;;;;;5061894;28;20028;-84
2022/08/05 02:28:02;;;;;;;7.40;4.60;;;;;;;;;;5063294;28;20083;-84
2022/08/05 02:30:30;;;;;;;6.85;5.00;;;;;;;;;;5053912;28;20032;-84
2022/08/05 02:32:58;;;;;;;6.85;4.80;;;;;;;;;;5045043;28;20025;-84
2022/08/05 02:35:25;;;;;;;9.45;5.22;;;;;;;;;;5045435;28;20049;-84
2022/08/05 02:37:53;;;;;;;7.15;4.97;;;;;;;;;;5061900;28;20025;-84
2022/08/05 02:40:20;;;;;;;6.80;5.05;;;;;;;;;;5043379;28;20029;-83
2022/08/05 02:42:46;;;;;;;8.10;4.43;;;;;;;;;;5063246;28;20029;-84
2022/08/05 02:45:14;;;;;;;6.63;4.82;;;;;;;;;;5061153;28;20073;-84
2022/08/05 02:47:40;;;;;;;7.00;4.43;;;;;;;;;;5062571;28;20036;-84
2022/08/05 02:50:07;;;;;;;7.78;5.00;;;;;;;;;;5044193;28;20020;-84
2022/08/05 02:52:34;;;;;;;8.45;5.30;;;;;;;;;;5066121;28;20024;-84
2022/08/05 02:55:00;;;;;;;6.00;4.55;;;;;;;;;;5056029;28;20102;-84
2022/08/05 02:57:27;;;;;;;6.90;5.18;;;;;;;;;;5044919;28;20053;-84
2022/08/05 02:59:53;;;;;;;7.30;4.78;;;;;;;;;;5061273;28;20025;-84
2022/08/05 03:02:20;;;;;;;6.72;4.85;;;;;;;;;;5061655;28;20044;-84
2022/08/05 03:04:47;;;;;;;6.57;4.68;;;;;;;;;;5082325;28;20024;-84
2022/08/05 03:07:13;;;;;;;8.38;4.78;;;;;;;;;;5082437;28;20418;-84
2022/08/05 03:09:43;;;;;;;7.25;5.00;;;;;;;;;;5065285;28;20025;-84
2022/08/05 03:12:09;;;;;;;7.18;4.88;;;;;;;;;;5037448;28;20417;-83
2022/08/05 03:14:35;;;;;;;6.32;4.68;;;;;;;;;;5037908;28;20083;-84
2022/08/05 03:17:01;;;;;;;11.13;5.32;;;;;;;;;;5057447;28;20033;-83
2022/08/05 03:19:27;;;;;;;6.93;4.82;;;;;;;;;;5058774;28;20032;-84
2022/08/05 03:21:53;;;;;;;6.82;4.45;;;;;;;;;;5061873;28;20017;-84
2022/08/05 03:24:19;;;;;;;7.97;4.85;;;;;;;;;;5060225;28;20028;-84
2022/08/05 03:26:46;;;;;;;5.57;4.30;;;;;;;;;;5058550;28;20403;-84
2022/08/05 03:29:12;;;;;;;7.95;5.53;;;;;;;;;;5059583;28;20398;-84
2022/08/05 03:31:38;;;;;;;6.53;4.63;;;;;;;;;;5061270;28;20096;-84
2022/08/05 03:34:05;;;;;;;7.53;5.00;;;;;;;;;;5042502;28;20056;-83
2022/08/05 03:36:32;;;;;;;7.00;4.68;;;;;;;;;;5057451;28;20094;-83
2022/08/05 03:38:58;;;;;;;7.55;4.38;;;;;;;;;;5056706;28;20025;-84
2022/08/05 03:41:24;;;;;;;7.40;4.75;;;;;;;;;;5041025;28;20032;-84
2022/08/05 03:43:50;;;;;;;6.53;4.78;;;;;;;;;;5056172;28;20041;-84
2022/08/05 03:46:16;;;;;;;7.13;4.85;;;;;;;;;;5038596;28;20499;-84
2022/08/05 03:48:42;;;;;;;6.53;4.50;;;;;;;;;;5049695;28;20078;-84
2022/08/05 03:51:23;;;;;;;8.07;4.60;;;;;;;;;;5053874;28;20395;-84
2022/08/05 03:53:58;;;;;;;6.88;5.10;;;;;;;;;;5058733;28;20025;-84
2022/08/05 03:56:27;;;;;;;8.88;5.25;;;;;;;;;;5041037;28;20025;-84
2022/08/05 03:58:53;;;;;;;6.97;4.82;;;;;;;;;;5040414;28;20025;-84
2022/08/05 04:01:20;;;;;;;7.45;5.07;;;;;;;;;;5040860;28;20025;-84
2022/08/05 04:03:48;;;;;;;6.68;4.60;;;;;;;;;;5039765;28;20021;-84
2022/08/05 04:06:15;;;;;;;6.70;4.80;;;;;;;;;;5057536;28;20053;-84
2022/08/05 04:08:42;;;;;;;6.82;4.78;;;;;;;;;;5058820;28;20047;-84
2022/08/05 04:11:08;;;;;;;8.18;4.78;;;;;;;;;;5059024;28;20099;-84
2022/08/05 04:13:35;;;;;;;7.55;4.50;;;;;;;;;;5039882;28;20376;-84
2022/08/05 04:16:01;;;;;;;9.02;5.22;;;;;;;;;;5059476;28;20029;-84
2022/08/05 04:18:27;;;;;;;8.88;5.25;;;;;;;;;;5058196;28;20090;-84
2022/08/05 04:20:54;;;;;;;13.30;5.00;;;;;;;;;;5059624;28;20032;-83
2022/08/05 04:23:22;;;;;;;9.85;5.47;;;;;;;;;;5058893;28;20025;-84
2022/08/05 04:25:48;;;;;;;7.90;4.80;;;;;;;;;;5058242;28;20033;-83
2022/08/05 04:28:14;;;;;;;10.50;5.32;;;;;;;;;;5056981;28;20107;-83
2022/08/05 04:30:40;;;;;;;11.13;5.68;;;;;;;;;;5056104;28;20021;-84
2022/08/05 04:33:07;;;;;;;9.63;5.72;;;;;;;;;;5059763;28;20398;-84
2022/08/05 04:35:33;;;;;;;13.90;5.88;;;;;;;;;;5040636;28;20477;-84
2022/08/05 04:37:59;;;;;;;13.27;5.63;;;;;;;;;;5039098;28;20025;-84
2022/08/05 04:40:25;;;;;;;11.13;5.40;;;;;;;;;;5057811;28;20028;-83
2022/08/05 04:42:51;;;;;;;11.95;5.80;;;;;;;;;;5046595;28;20111;-83
2022/08/05 04:45:17;;;;;;;10.68;5.50;;;;;;;;;;5065780;28;20502;-82
2022/08/05 04:47:43;;;;;;;10.35;5.85;;;;;;;;;;5062750;28;20021;-82
2022/08/05 04:50:11;;;;;;;11.75;5.28;;;;;;;;;;5043736;28;20051;-81
2022/08/05 04:52:37;;;;;;;19.63;5.97;;;;;;;;;;5062281;28;20538;-82
2022/08/05 04:55:03;;;;;;;17.10;6.20;;;;;;;;;;5046021;28;20102;-82
2022/08/05 04:57:30;;;;;;;14.85;5.97;;;;;;;;;;5061893;28;20116;-82
2022/08/05 04:59:56;;;;;;;14.25;5.93;;;;;;;;;;5061512;28;20252;-82
2022/08/05 05:02:22;;;;;;;12.80;5.60;;;;;;;;;;5062339;28;20052;-82
2022/08/05 05:04:48;;;;;;;15.13;5.57;;;;;;;;;;5063839;28;20029;-82
2022/08/05 05:07:16;;;;;;;10.80;5.43;;;;;;;;;;5061913;28;20518;-82
2022/08/05 05:09:42;;;;;;;9.57;5.65;;;;;;;;;;5063929;28;20025;-82
2022/08/05 05:12:08;;;;;;;7.57;5.22;;;;;;;;;;5065542;28;20033;-83
2022/08/05 05:14:34;;;;;;;11.98;5.60;;;;;;;;;;5063059;28;20094;-82
2022/08/05 05:17:00;;;;;;;9.80;5.95;;;;;;;;;;5045821;28;20059;-82
2022/08/05 05:19:26;;;;;;;9.38;6.10;;;;;;;;;;5061241;28;20059;-82
2022/08/05 05:21:52;;;;;;;9.68;5.28;;;;;;;;;;5044939;28;20028;-82
2022/08/05 05:24:20;;;;;;;8.13;4.90;;;;;;;;;;5065177;28;20368;-82
2022/08/05 05:26:46;;;;;;;8.02;5.28;;;;;;;;;;5067433;28;20021;-82
2022/08/05 05:29:12;;;;;;;8.93;5.25;;;;;;;;;;5046878;28;20075;-82
2022/08/05 05:31:38;;;;;;;13.25;6.03;;;;;;;;;;5062680;28;20029;-81
2022/08/05 05:34:04;;;;;;;9.45;5.60;;;;;;;;;;5062476;28;20479;-81
2022/08/05 05:36:31;;;;;;;9.98;5.63;;;;;;;;;;5061864;28;20037;-82
2022/08/05 05:38:57;;;;;;;8.35;5.57;;;;;;;;;;5053739;28;20110;-82
2022/08/05 05:41:23;;;;;;;10.35;5.70;;;;;;;;;;5059471;28;20018;-83
2022/08/05 05:43:49;;;;;;;9.65;6.40;;;;;;;;;;5054915;28;20036;-82
2022/08/05 05:46:15;;;;;;;16.42;7.30;;;;;;;;;;5065401;28;20051;-83
2022/08/05 05:48:42;;;;;;;12.52;6.10;;;;;;;;;;5060046;28;20073;-83
2022/08/05 05:51:08;;;;;;;8.52;5.50;;;;;;;;;;5058591;28;20045;-83
2022/08/05 05:53:34;;;;;;;9.98;5.78;;;;;;;;;;5056387;28;20053;-82
2022/08/05 05:56:00;;;;;;;9.85;6.10;;;;;;;;;;5056652;28;20415;-83
2022/08/05 05:58:26;;;;;;;7.38;5.55;;;;;;;;;;5037004;28;20368;-83
2022/08/05 06:00:52;;;;;;;8.10;5.60;;;;;;;;;;5052244;28;20032;-83
2022/08/05 06:03:18;;;;;;;10.10;5.95;;;;;;;;;;5038863;28;20029;-83
2022/08/05 06:05:44;;;;;;;10.73;6.65;;;;;;;;;;5035946;28;20029;-83
2022/08/05 06:08:10;;;;;;;12.63;6.43;;;;;;;;;;5053951;28;20017;-82
2022/08/05 06:10:36;;;;;;;9.70;6.57;;;;;;;;;;5042340;28;20025;-82
2022/08/05 06:13:03;;;;;;;9.45;6.63;;;;;;;;;;5057049;28;20037;-83
2022/08/05 06:15:29;;;;;;;8.98;5.78;;;;;;;;;;5057590;28;20124;-82
2022/08/05 06:17:55;;;;;;;11.23;7.35;;;;;;;;;;5053244;28;20457;-83
2022/08/05 06:20:21;;;;;;;9.60;6.40;;;;;;;;;;5051975;28;20036;-82
2022/08/05 06:22:47;;;;;;;7.43;5.30;;;;;;;;;;5055687;28;20029;-83
2022/08/05 06:25:13;;;;;;;7.75;5.88;;;;;;;;;;5058187;28;20056;-84
2022/08/05 06:27:40;;;;;;;7.13;5.95;;;;;;;;;;5037862;28;20033;-85
2022/08/05 06:30:07;;;;;;;9.48;5.95;;;;;;;;;;5053925;28;20017;-83
2022/08/05 06:32:33;;;;;;;8.98;6.10;;;;;;;;;;5034223;28;20487;-82
2022/08/05 06:34:59;;;;;;;9.30;5.88;;;;;;;;;;5038516;28;20091;-82
2022/08/05 06:37:26;;;;;;;9.20;5.75;;;;;;;;;;5040465;28;20087;-83
2022/08/05 06:39:52;;;;;;;8.65;6.47;;;;;;;;;;5037102;28;20040;-83
2022/08/05 06:42:18;;;;;;;6.72;5.72;;;;;;;;;;5038156;28;20033;-83
2022/08/05 06:44:44;;;;;;;8.45;5.65;;;;;;;;;;5037264;28;20133;-83
2022/08/05 06:47:10;;;;;;;8.32;5.93;;;;;;;;;;5036660;28;20466;-83
2022/08/05 06:49:36;;;;;;;7.18;5.43;;;;;;;;;;5054628;28;20021;-82
2022/08/05 06:52:02;;;;;;;6.57;5.38;;;;;;;;;;5038043;28;20052;-82
2022/08/05 06:54:28;;;;;;;7.95;5.75;;;;;;;;;;5039043;28;20101;-82
2022/08/05 06:56:54;;;;;;;7.38;6.03;;;;;;;;;;5038600;28;20140;-83
2022/08/05 06:59:20;;;;;;;8.98;6.35;;;;;;;;;;5056252;28;20028;-83
2022/08/05 07:01:46;;;;;;;6.55;5.68;;;;;;;;;;5056336;28;20093;-82
2022/08/05 07:04:12;;;;;;;9.70;6.10;;;;;;;;;;5054681;28;20106;-83
2022/08/05 07:06:38;;;;;;;8.80;6.15;;;;;;;;;;5055991;28;20543;-83
2022/08/05 07:09:04;;;;;;;7.35;5.90;;;;;;;;;;5053241;28;20025;-83
2022/08/05 07:11:31;;;;;;;8.95;6.15;;;;;;;;;;5056315;28;20029;-82
2022/08/05 07:16:48;;;;;;;8.80;5.95;;;;;;;;;;5055554;28;20457;-83
2022/08/05 07:19:18;;;;;;;7.25;5.75;;;;;;;;;;5054353;28;20150;-82
2022/08/05 07:21:45;;;;;;;7.15;5.63;;;;;;;;;;5055433;28;20503;-82
2022/08/05 07:24:11;;;;;;;9.20;6.50;;;;;;;;;;5054693;28;20116;-82
2022/08/05 07:26:37;;;;;;;8.75;5.88;;;;;;;;;;5055527;28;20078;-82
2022/08/05 07:29:03;;;;;;;7.82;5.80;;;;;;;;;;5053603;28;20506;-81
2022/08/05 07:31:29;;;;;;;8.25;5.85;;;;;;;;;;5055052;28;20024;-82
2022/08/05 07:33:55;;;;;;;7.82;6.00;;;;;;;;;;5054491;28;20522;-83
2022/08/05 07:36:21;;;;;;;9.10;5.80;;;;;;;;;;5054761;28;20032;-83
2022/08/05 07:38:47;;;;;;;7.35;5.97;;;;;;;;;;5053554;28;20013;-82
2022/08/05 07:41:17;;;;;;;7.00;6.00;;;;;;;;;;5055136;28;20038;-83
2022/08/05 07:43:43;;;;;;;6.90;5.35;;;;;;;;;;5055952;28;20033;-82
2022/08/05 07:46:09;;;;;;;7.95;5.45;;;;;;;;;;5038733;28;20028;-82
2022/08/05 07:48:35;;;;;;;9.15;6.03;;;;;;;;;;5036618;28;20021;-83
2022/08/05 07:51:01;;;;;;;8.60;5.80;;;;;;;;;;5037024;28;20075;-84
2022/08/05 07:53:27;;;;;;;8.40;5.78;;;;;;;;;;5054833;28;20037;-83
2022/08/05 07:55:53;;;;;;;8.00;5.95;;;;;;;;;;5052086;28;20037;-81
2022/08/05 07:58:20;;;;;;;10.35;6.38;;;;;;;;;;5049508;28;20033;-83
2022/08/05 08:00:46;;;;;;;9.10;5.43;;;;;;;;;;5055171;28;20033;-83
2022/08/05 08:03:12;;;;;;;7.93;5.80;;;;;;;;;;5036762;28;20391;-83
2022/08/05 08:05:43;;;;;;;6.90;5.32;;;;;;;;;;5054887;28;20052;-82
2022/08/05 08:08:12;;;;;;;8.02;5.80;;;;;;;;;;5056116;28;20017;-83
2022/08/05 08:10:39;;;;;;;8.57;5.60;;;;;;;;;;5050694;28;20020;-82
2022/08/05 08:13:05;;;;;;;8.55;6.00;;;;;;;;;;5031123;28;20244;-82
2022/08/05 08:15:32;;;;;;;8.85;5.93;;;;;;;;;;5052765;28;20037;-81
2022/08/05 08:17:58;;;;;;;7.80;6.10;;;;;;;;;;5031612;28;20430;-82
2022/08/05 08:20:25;;;;;;;7.22;5.47;;;;;;;;;;5034214;28;20510;-81
2022/08/05 08:22:55;;;;;;;7.30;5.53;;;;;;;;;;5034738;28;20025;-82
2022/08/05 08:25:21;;;;;;;8.55;5.70;;;;;;;;;;5034287;28;20105;-82
2022/08/05 08:27:47;;;;;;;13.50;6.22;;;;;;;;;;5042180;28;20049;-82
2022/08/05 08:30:13;;;;;;;9.20;5.38;;;;;;;;;;5053242;28;20029;-82
2022/08/05 08:32:39;;;;;;;10.25;5.55;;;;;;;;;;5036135;28;20017;-82
2022/08/05 08:35:06;;;;;;;6.88;5.30;;;;;;;;;;5053872;28;20112;-82
2022/08/05 08:37:32;;;;;;;8.70;5.78;;;;;;;;;;5049133;28;20040;-82
2022/08/05 08:39:58;;;;;;;7.85;5.78;;;;;;;;;;5053138;28;20032;-82
2022/08/05 08:42:25;;;;;;;7.20;5.72;;;;;;;;;;5051721;28;20029;-82
2022/08/05 08:44:53;;;;;;;7.43;5.78;;;;;;;;;;5053699;28;20037;-82
2022/08/05 08:47:22;;;;;;;6.70;5.30;;;;;;;;;;5035621;28;20098;-82
2022/08/05 08:49:51;;;;;;;7.63;6.25;;;;;;;;;;5045903;28;20021;-82
2022/08/05 08:52:19;;;;;;;9.25;5.63;;;;;;;;;;5055636;28;20109;-82
2022/08/05 08:54:46;;;;;;;9.05;5.43;;;;;;;;;;5053125;28;20361;-82
2022/08/05 08:57:13;;;;;;;10.05;6.18;;;;;;;;;;5052193;28;20702;-82
2022/08/05 08:59:39;;;;;;;6.88;5.70;;;;;;;;;;5033710;28;20040;-82
2022/08/05 09:02:06;;;;;;;7.53;5.90;;;;;;;;;;5034047;28;20083;-82
2022/08/05 09:04:39;;;;;;;8.18;6.20;;;;;;;;;;5051656;28;20108;-83
2022/08/05 09:07:05;;;;;;;8.52;6.03;;;;;;;;;;5047193;28;20021;-82
2022/08/05 09:09:34;;;;;;;8.35;6.10;;;;;;;;;;5052312;28;20503;-82
2022/08/05 09:12:01;;;;;;;7.15;5.95;;;;;;;;;;5051042;28;20055;-83
2022/08/05 09:14:27;;;;;;;10.32;6.10;;;;;;;;;;5050271;28;20568;-83
2022/08/05 09:16:53;;;;;;;6.88;5.75;;;;;;;;;;5057699;28;20032;-82
2022/08/05 09:19:19;;;;;;;9.57;5.95;;;;;;;;;;5051558;28;20053;-83
2022/08/05 09:21:45;;;;;;;8.18;5.72;;;;;;;;;;5049591;28;20107;-83
2022/08/05 09:24:12;;;;;;;8.57;5.85;;;;;;;;;;5052881;28;20029;-82
2022/08/05 09:26:38;;;;;;;8.27;5.90;;;;;;;;;;5037346;28;20029;-83
2022/08/05 09:29:08;;;;;;;6.57;5.88;;;;;;;;;;5056344;28;20032;-83
2022/08/05 09:31:34;;;;;;;8.90;5.68;;;;;;;;;;5059466;28;20025;-83
2022/08/05 09:34:03;;;;;;;7.07;5.65;;;;;;;;;;5059927;28;20021;-82
2022/08/05 09:36:38;;;;;;;6.95;5.40;;;;;;;;;;5039355;28;20029;-83
2022/08/05 09:39:06;;;;;;;9.38;5.43;;;;;;;;;;5043639;28;20029;-84
2022/08/05 09:41:32;;;;;;;10.30;6.07;;;;;;;;;;5059689;28;20021;-85
2022/08/05 09:43:58;;;;;;;8.25;5.43;;;;;;;;;;5059348;28;20037;-84
2022/08/05 09:46:31;;;;;;;8.05;6.47;;;;;;;;;;5058947;28;20029;-83
2022/08/05 09:48:58;;;;;;;7.13;5.53;;;;;;;;;;5038391;28;20029;-84
2022/08/05 09:51:37;;;;;;;9.07;5.82;;;;;;;;;;5051404;28;20078;-84
2022/08/05 09:54:07;;;;;;;8.40;5.75;;;;;;;;;;5038553;28;20031;-84
2022/08/05 09:56:34;;;;;;;7.72;5.63;;;;;;;;;;5061235;28;20023;-83
2022/08/05 09:59:03;;;;;;;7.18;5.40;;;;;;;;;;5046161;28;20043;-83
2022/08/05 10:01:32;;;;;;;6.88;5.40;;;;;;;;;;5062003;28;20033;-83
2022/08/05 10:04:03;;;;;;;6.72;5.10;;;;;;;;;;5061555;28;20033;-83
2022/08/05 10:06:29;;;;;;;6.38;5.45;;;;;;;;;;5059367;28;20067;-83
2022/08/05 10:08:56;;;;;;;7.10;5.25;;;;;;;;;;5056485;28;20028;-82
2022/08/05 10:11:22;;;;;;;6.90;5.70;;;;;;;;;;5039849;28;20048;-83
2022/08/05 10:13:48;;;;;;;6.40;5.45;;;;;;;;;;5057557;28;20494;-82
2022/08/05 10:16:31;;;;;;;6.20;5.60;;;;;;;;;;5056213;28;20036;-82
2022/08/05 10:18:58;;;;;;;6.80;5.85;;;;;;;;;;5029711;28;20037;-83
2022/08/05 10:21:24;;;;;;;9.60;5.93;;;;;;;;;;5054967;28;20028;-83
2022/08/05 10:23:50;;;;;;;7.28;6.40;;;;;;;;;;5053561;28;20059;-82
2022/08/05 10:26:16;;;;;;;6.63;5.57;;;;;;;;;;5061884;28;20028;-85
2022/08/05 10:28:43;;;;;;;10.43;5.63;;;;;;;;;;5059047;28;20017;-83
2022/08/05 10:31:11;;;;;;;8.57;5.90;;;;;;;;;;5061158;28;20021;-82
2022/08/05 10:33:37;;;;;;;7.28;5.75;;;;;;;;;;5062197;28;20020;-82
2022/08/05 10:36:04;;;;;;;7.35;5.55;;;;;;;;;;5054582;28;20023;-83
2022/08/05 10:38:31;;;;;;;6.82;5.88;;;;;;;;;;5054285;28;20060;-85
2022/08/05 10:41:16;;;;;;;7.15;5.72;;;;;;;;;;5038333;28;20037;-83
2022/08/05 10:43:45;;;;;;;6.80;5.97;;;;;;;;;;5043604;28;20033;-83
2022/08/05 10:46:12;;;;;;;7.07;6.07;;;;;;;;;;5055662;28;20202;-82
2022/08/05 10:48:45;;;;;;;7.50;5.57;;;;;;;;;;5043424;28;20420;-82
2022/08/05 10:51:13;;;;;;;7.78;6.20;;;;;;;;;;5063678;28;20056;-82
2022/08/05 10:53:39;;;;;;;7.10;6.20;;;;;;;;;;5062521;28;20035;-83
2022/08/05 10:56:06;;;;;;;6.35;5.75;;;;;;;;;;5061205;28;20108;-83
2022/08/05 10:58:34;;;;;;;7.03;6.32;;;;;;;;;;5061387;28;20071;-83
2022/08/05 11:01:03;;;;;;;6.15;5.55;;;;;;;;;;5059462;28;20027;-81
2022/08/05 11:03:29;;;;;;;6.72;6.00;;;;;;;;;;5059839;28;20033;-82
2022/08/05 11:06:05;;;;;;;6.70;5.68;;;;;;;;;;5058711;28;20037;-82
2022/08/05 11:08:32;;;;;;;6.82;5.90;;;;;;;;;;5043046;28;20021;-82
2022/08/05 11:11:18;;;;;;;6.70;6.00;;;;;;;;;;5062015;28;20044;-83
2022/08/05 11:13:44;;;;;;;6.55;5.82;;;;;;;;;;5050477;28;20033;-83
2022/08/05 11:16:23;;;;;;;6.40;5.80;;;;;;;;;;5039841;28;20017;-83
2022/08/05 11:19:09;;;;;;;7.07;5.80;;;;;;;;;;5035083;28;20079;-83
2022/08/05 11:21:37;;;;;;;8.05;6.32;;;;;;;;;;5047106;28;20029;-82
2022/08/05 11:24:10;;;;;;;7.00;6.30;;;;;;;;;;5041567;28;20025;-83
2022/08/05 11:26:36;;;;;;;6.32;5.70;;;;;;;;;;5057636;28;20029;-82
2022/08/05 11:29:04;;;;;;;8.02;6.75;;;;;;;;;;5062212;28;20021;-82
2022/08/05 11:31:31;;;;;;;8.35;7.30;;;;;;;;;;5061400;28;20036;-83
2022/08/05 11:33:58;;;;;;;7.97;6.78;;;;;;;;;;5057099;28;20009;-83
2022/08/05 11:36:45;;;;;;;8.02;6.50;;;;;;;;;;5058761;28;20489;-83
2022/08/05 11:39:12;;;;;;;7.85;6.93;;;;;;;;;;5057659;28;20425;-83
2022/08/05 11:41:39;;;;;;;7.68;6.88;;;;;;;;;;5052044;28;20025;-83
2022/08/05 11:44:06;;;;;;;8.30;7.45;;;;;;;;;;5038112;28;20419;-83
2022/08/05 11:46:32;;;;;;;7.88;6.72;;;;;;;;;;5039777;28;20025;-83
2022/08/05 11:48:58;;;;;;;7.40;6.57;;;;;;;;;;5040100;28;20017;-83
2022/08/05 11:51:25;;;;;;;7.72;6.95;;;;;;;;;;5065465;28;20039;-83
2022/08/05 11:53:52;;;;;;;7.40;6.60;;;;;;;;;;5076628;28;20020;-83
2022/08/05 11:56:18;;;;;;;8.68;7.00;;;;;;;;;;5056331;28;20043;-82
2022/08/05 11:58:44;;;;;;;7.28;6.57;;;;;;;;;;5055824;28;20610;-83
2022/08/05 12:01:13;;;;;;;7.78;6.93;;;;;;;;;;5055422;28;20483;-84
2022/08/05 12:03:40;;;;;;;8.88;7.05;;;;;;;;;;5056013;28;20043;-84
2022/08/05 12:06:06;;;;;;;8.80;7.38;;;;;;;;;;5052549;28;20116;-83
2022/08/05 12:08:33;;;;;;;7.80;7.00;;;;;;;;;;5055422;28;20021;-83
2022/08/05 12:10:59;;;;;;;8.32;7.40;;;;;;;;;;5055458;28;20024;-84
2022/08/05 12:13:26;;;;;;;8.02;7.20;;;;;;;;;;5057726;28;20028;-84
2022/08/05 12:15:52;;;;;;;8.00;6.88;;;;;;;;;;5056498;28;20074;-84
2022/08/05 12:18:18;;;;;;;7.80;6.88;;;;;;;;;;5056327;28;20029;-84
2022/08/05 12:20:44;;;;;;;8.30;6.78;;;;;;;;;;5046292;28;20044;-82
2022/08/05 12:23:11;;;;;;;7.93;7.13;;;;;;;;;;5051048;28;20158;-83
2022/08/05 12:25:53;;;;;;;8.18;6.30;;;;;;;;;;5055050;28;20036;-82
2022/08/05 12:28:32;;;;;;;7.68;6.88;;;;;;;;;;5056583;28;20017;-83
2022/08/05 12:30:59;;;;;;;7.45;6.72;;;;;;;;;;5061198;28;20017;-84
2022/08/05 12:33:25;;;;;;;8.60;6.80;;;;;;;;;;5058686;28;20031;-87
2022/08/05 12:35:51;;;;;;;8.23;6.63;;;;;;;;;;5062061;28;20025;-84
2022/08/05 12:38:17;;;;;;;8.10;6.85;;;;;;;;;;5040733;28;20044;-82
2022/08/05 12:40:43;;;;;;;7.72;6.43;;;;;;;;;;5056220;28;20036;-83
2022/08/05 12:43:10;;;;;;;7.75;6.53;;;;;;;;;;5055222;28;20471;-83
2022/08/05 12:45:36;;;;;;;7.65;6.85;;;;;;;;;;5038856;28;20037;-84
2022/08/05 12:48:14;;;;;;;7.28;6.40;;;;;;;;;;5057787;28;20017;-83
2022/08/05 12:50:40;;;;;;;7.60;6.80;;;;;;;;;;5056667;28;20028;-82
2022/08/05 12:53:07;;;;;;;7.32;6.30;;;;;;;;;;5037840;28;20025;-83
2022/08/05 12:55:34;;;;;;;6.78;6.07;;;;;;;;;;5053100;28;20029;-83
2022/08/05 12:58:00;;;;;;;6.53;5.45;;;;;;;;;;5053258;28;20036;-83
2022/08/05 13:00:28;;;;;;;5.38;4.80;;;;;;;;;;5057592;28;20398;-83
2022/08/05 13:02:55;;;;;;;5.10;4.32;;;;;;;;;;5036533;28;20503;-82
2022/08/05 13:05:22;;;;;;;5.75;4.20;;;;;;;;;;5060623;28;20035;-83
2022/08/05 13:07:48;;;;;;;6.60;4.40;;;;;;;;;;5061047;28;20094;-83
2022/08/05 13:10:15;;;;;;;6.13;4.68;;;;;;;;;;5062574;28;20080;-83
2022/08/05 13:12:42;;;;;;;6.53;4.88;;;;;;;;;;5063756;28;20032;-82
2022/08/05 13:15:13;;;;;;;5.57;4.47;;;;;;;;;;5063545;28;20566;-82
2022/08/05 13:17:39;;;;;;;5.38;4.10;;;;;;;;;;5062251;28;20028;-82
2022/08/05 13:20:07;;;;;;;4.80;4.00;;;;;;;;;;5044221;28;20501;-83
2022/08/05 13:22:34;;;;;;;5.25;4.10;;;;;;;;;;5074524;28;20039;-83
2022/08/05 13:25:01;;;;;;;5.35;4.00;;;;;;;;;;5062139;28;20041;-82
2022/08/05 13:27:27;;;;;;;4.90;3.90;;;;;;;;;;5060120;28;20123;-82
2022/08/05 13:29:53;;;;;;;5.57;4.00;;;;;;;;;;5059713;28;20531;-83
2022/08/05 13:32:20;;;;;;;5.75;3.83;;;;;;;;;;5059995;28;20053;-83
2022/08/05 13:34:46;;;;;;;5.20;4.13;;;;;;;;;;5057855;28;20028;-83
2022/08/05 13:37:12;;;;;;;5.10;3.95;;;;;;;;;;5039439;28;20083;-83
2022/08/05 13:39:38;;;;;;;5.38;4.63;;;;;;;;;;5059047;28;20045;-82
2022/08/05 13:42:04;;;;;;;5.07;3.97;;;;;;;;;;5057485;28;20033;-82
2022/08/05 13:44:30;;;;;;;5.95;3.70;;;;;;;;;;5061015;28;20052;-83
2022/08/05 13:46:56;;;;;;;5.78;4.22;;;;;;;;;;5060789;28;20100;-82
2022/08/05 13:49:22;;;;;;;4.90;3.83;;;;;;;;;;5041542;28;20103;-83
2022/08/05 13:51:48;;;;;;;4.75;3.63;;;;;;;;;;5058059;28;20013;-83
2022/08/05 13:54:19;;;;;;;5.95;3.90;;;;;;;;;;5041142;28;20021;-83
2022/08/05 13:56:46;;;;;;;4.60;3.67;;;;;;;;;;5048262;28;20021;-82
2022/08/05 13:59:12;;;;;;;5.10;3.90;;;;;;;;;;5051226;28;20518;-83
2022/08/05 14:01:38;;;;;;;6.68;3.80;;;;;;;;;;5057332;28;20009;-82
2022/08/05 14:06:49;;;;;;;5.15;4.32;;;;;;;;;;5056160;28;20565;-82
2022/08/05 14:09:15;;;;;;;5.55;4.22;;;;;;;;;;5038863;28;20025;-83
2022/08/05 14:11:41;;;;;;;5.85;3.90;;;;;;;;;;5056125;28;20530;-83
2022/08/05 14:14:08;;;;;;;5.88;4.40;;;;;;;;;;5053969;28;20027;-82
2022/08/05 14:16:34;;;;;;;5.47;4.28;;;;;;;;;;5056994;28;20025;-83
2022/08/05 14:19:00;;;;;;;5.55;3.95;;;;;;;;;;5054253;28;20494;-83
2022/08/05 14:21:26;;;;;;;4.60;3.65;;;;;;;;;;5056590;28;20112;-82
2022/08/05 14:23:52;;;;;;;5.05;4.10;;;;;;;;;;5056062;28;20472;-83
2022/08/05 14:26:18;;;;;;;4.85;4.00;;;;;;;;;;5056372;28;20103;-83
2022/08/05 14:28:44;;;;;;;5.70;3.92;;;;;;;;;;5054714;28;20134;-84
2022/08/05 14:31:11;;;;;;;4.75;3.55;;;;;;;;;;5057343;28;20024;-82
2022/08/05 14:33:37;;;;;;;4.10;3.03;;;;;;;;;;5057246;28;20036;-83
2022/08/05 14:36:03;;;;;;;5.10;3.53;;;;;;;;;;5057214;28;20031;-82
2022/08/05 14:38:29;;;;;;;5.18;3.50;;;;;;;;;;5055807;28;20481;-82
2022/08/05 14:40:55;;;;;;;4.70;3.53;;;;;;;;;;5057288;28;20679;-82
2022/08/05 14:43:22;;;;;;;4.53;3.50;;;;;;;;;;5054695;28;20084;-82
2022/08/05 14:45:48;;;;;;;7.05;3.95;;;;;;;;;;5057243;28;20037;-83
2022/08/05 14:48:14;;;;;;;5.05;3.78;;;;;;;;;;5038891;28;20021;-83